createdAt,value
2023-05-13T00:01:01.493Z,101303.47
2023-05-13T00:06:03.611Z,101303.53
2023-05-13T00:11:05.693Z,101310.63
2023-05-13T00:16:07.730Z,101306.22
2023-05-13T00:21:09.725Z,101298.19
2023-05-13T00:26:11.649Z,101300.72
2023-05-13T00:31:13.497Z,101296.38
2023-05-13T00:36:15.706Z,101298.97
2023-05-13T00:41:18.197Z,101299.06
2023-05-13T00:46:20.468Z,101299.25
2023-05-13T00:51:22.617Z,101297.44
2023-05-13T00:56:25.444Z,101296.50
2023-05-13T01:01:52.184Z,101305.44
2023-05-13T01:07:24.759Z,101307.34
2023-05-13T01:12:46.661Z,101308.31
2023-05-13T01:17:56.006Z,101308.31
2023-05-13T01:22:58.002Z,101299.16
2023-05-13T01:28:00.157Z,101303.81
2023-05-13T01:33:02.880Z,101299.31
2023-05-13T01:38:05.511Z,101302.84
2023-05-13T01:43:07.693Z,101307.06
2023-05-13T01:48:09.706Z,101305.44
2023-05-13T01:53:12.207Z,101301.13
2023-05-13T01:58:14.097Z,101297.50
2023-05-13T02:03:16.641Z,101303.88
2023-05-13T02:08:18.579Z,101307.34
2023-05-13T02:13:20.521Z,101309.09
2023-05-13T02:18:22.572Z,101312.69
2023-05-13T02:23:24.602Z,101309.22
2023-05-13T02:28:26.735Z,101303.72
2023-05-13T02:33:28.577Z,101301.28
2023-05-13T02:38:30.653Z,101304.75
2023-05-13T02:43:32.548Z,101303.03
2023-05-13T02:48:34.367Z,101303.88
2023-05-13T02:53:36.170Z,101304.84
2023-05-13T02:58:37.972Z,101303.13
2023-05-13T03:03:39.905Z,101303.97
2023-05-13T03:08:41.946Z,101300.53
2023-05-13T03:13:43.819Z,101300.44
2023-05-13T03:18:45.893Z,101299.31
2023-05-13T03:23:47.743Z,101300.44
2023-05-13T03:28:49.738Z,101307.69
2023-05-13T03:33:51.706Z,101303.19
2023-05-13T03:38:53.603Z,101301.41
2023-05-13T03:43:55.538Z,101302.34
2023-05-13T03:48:57.525Z,101312.19
2023-05-13T03:53:59.457Z,101314.16
2023-05-13T03:59:01.238Z,101313.13
2023-05-13T04:04:03.160Z,101317.78
2023-05-13T04:09:05.096Z,101315.88
2023-05-13T04:14:07.057Z,101318.38
2023-05-13T04:19:09.035Z,101316.56
2023-05-13T04:24:11.184Z,101325.53
2023-05-13T04:29:13.165Z,101319.34
2023-05-13T04:34:15.611Z,101323.91
2023-05-13T04:39:17.629Z,101327.44
2023-05-13T04:44:19.518Z,101321.22
2023-05-13T04:49:21.542Z,101320.38
2023-05-13T04:54:24.012Z,101329.25
2023-05-13T04:59:26.044Z,101330.09
2023-05-13T05:04:28.116Z,101330.19
2023-05-13T05:09:30.494Z,101341.84
2023-05-13T05:14:32.393Z,101340.88
2023-05-13T05:19:34.317Z,101353.38
2023-05-13T05:24:36.227Z,101356.09
2023-05-13T05:29:38.247Z,101351.63
2023-05-13T05:34:40.437Z,101352.56
2023-05-13T05:39:42.258Z,101351.72
2023-05-13T05:44:44.175Z,101359.59
2023-05-13T05:49:46.645Z,101368.59
2023-05-13T05:54:48.569Z,101361.56
2023-05-13T05:59:51.255Z,101362.78
2023-05-13T06:04:53.261Z,101369.97
2023-05-13T06:09:55.451Z,101366.50
2023-05-13T06:14:57.449Z,101372.34
2023-05-13T06:19:59.245Z,101369.53
2023-05-13T06:25:01.093Z,101371.59
2023-05-13T06:30:03.505Z,101375.75
2023-05-13T06:35:05.527Z,101374.06
2023-05-13T06:40:08.130Z,101376.59
2023-05-13T06:45:10.293Z,101385.47
2023-05-13T06:50:12.249Z,101377.53
2023-05-13T06:55:14.252Z,101385.53
2023-05-13T07:00:17.078Z,101382.72
2023-05-13T07:05:19.016Z,101383.41
2023-05-13T07:10:21.097Z,101385.06
2023-05-13T07:15:24.383Z,101378.72
2023-05-13T07:20:26.899Z,101379.34
2023-05-13T07:25:28.820Z,101376.94
2023-05-13T07:30:31.168Z,101381.31
2023-05-13T07:35:33.735Z,101377.47
2023-05-13T07:40:35.790Z,101384.34
2023-05-13T07:45:39.424Z,101377.97
2023-05-13T07:50:41.874Z,101396.75
2023-05-13T07:55:43.689Z,101409.09
2023-05-13T08:00:45.532Z,101393.16
2023-05-13T08:05:48.357Z,101407.03
2023-05-13T08:10:50.313Z,101394.78
2023-05-13T08:15:52.850Z,101399.63
2023-05-13T08:20:54.783Z,101386.69
2023-05-13T08:25:56.659Z,101394.50
2023-05-13T08:31:03.764Z,101394.09
2023-05-13T08:36:06.088Z,101409.97
2023-05-13T08:41:08.131Z,101399.28
2023-05-13T08:46:12.187Z,101405.56
2023-05-13T08:51:14.280Z,101402.03
2023-05-13T08:56:16.085Z,101411.09
2023-05-13T09:01:18.194Z,101404.72
2023-05-13T09:06:20.085Z,101397.53
2023-05-13T09:11:23.486Z,101398.50
2023-05-13T09:16:27.156Z,101389.88
2023-05-13T09:21:35.606Z,101385.28
2023-05-13T09:26:37.759Z,101389.00
2023-05-13T09:31:39.669Z,101386.50
2023-05-13T09:36:42.218Z,101377.69
2023-05-13T09:41:44.234Z,101370.63
2023-05-13T09:46:46.313Z,101371.69
2023-05-13T09:51:48.315Z,101360.97
2023-05-13T09:56:50.917Z,101371.75
2023-05-13T10:01:54.792Z,101370.91
2023-05-13T10:06:59.109Z,101359.34
2023-05-13T10:12:03.069Z,101358.66
2023-05-13T10:17:06.091Z,101361.31
2023-05-13T10:22:08.576Z,101346.06
2023-05-13T10:27:12.003Z,101345.56
2023-05-13T10:32:15.076Z,101348.72
2023-05-13T10:37:51.127Z,101337.06
2023-05-13T10:43:20.491Z,101330.94
2023-05-13T10:48:22.648Z,101335.16
2023-05-13T10:53:28.578Z,101321.13
2023-05-13T10:58:32.557Z,101333.47
2023-05-13T11:03:34.509Z,101318.34
2023-05-13T11:08:41.407Z,101311.09
2023-05-13T11:13:43.382Z,101314.75
2023-05-13T11:18:45.494Z,101303.97
2023-05-13T11:23:58.163Z,101303.28
2023-05-13T11:29:05.393Z,101297.16
2023-05-13T11:34:12.122Z,101296.97
2023-05-13T11:39:18.925Z,101284.38
2023-05-13T11:44:24.240Z,101291.44
2023-05-13T11:49:45.294Z,101281.88
2023-05-13T11:54:53.727Z,101286.09
2023-05-13T12:00:07.053Z,101281.59
2023-05-13T12:05:11.581Z,101277.31
2023-05-13T12:10:13.711Z,101274.34
2023-05-13T12:15:20.485Z,101277.13
2023-05-13T12:20:24.273Z,101278.00
2023-05-13T12:25:44.354Z,101270.63
2023-05-13T12:31:03.917Z,101273.59
2023-05-13T12:36:28.197Z,101276.19
2023-05-13T12:41:35.314Z,101273.50
2023-05-13T12:46:38.176Z,101273.31
2023-05-13T12:51:40.338Z,101290.41
2023-05-13T12:56:42.251Z,101281.53
2023-05-13T13:01:44.402Z,101288.59
2023-05-13T13:06:46.441Z,101279.72
2023-05-13T13:11:48.226Z,101275.91
2023-05-13T13:16:50.194Z,101274.16
2023-05-13T13:21:52.245Z,101274.09
2023-05-13T13:26:55.002Z,101266.91
2023-05-13T13:31:57.932Z,101276.84
2023-05-13T13:36:59.822Z,101261.75
2023-05-13T13:42:04.870Z,101261.75
2023-05-13T13:47:06.775Z,101242.97
2023-05-13T13:52:08.907Z,101252.78
2023-05-13T13:57:10.910Z,101281.25
2023-05-13T14:02:13.122Z,101285.75
2023-05-13T14:07:15.655Z,101279.72
2023-05-13T14:12:17.653Z,101275.22
2023-05-13T14:17:20.976Z,101270.72
2023-05-13T14:22:23.938Z,101275.97
2023-05-13T14:27:26.188Z,101270.72
2023-05-13T14:32:28.236Z,101273.50
2023-05-13T14:37:30.091Z,101276.84
2023-05-13T14:42:31.840Z,101288.41
2023-05-13T14:47:33.716Z,101295.56
2023-05-13T14:52:35.663Z,101309.03
2023-05-13T14:57:37.795Z,101310.75
2023-05-13T15:02:39.762Z,101294.69
2023-05-13T15:07:42.085Z,101282.97
2023-05-13T15:12:43.910Z,101273.31
2023-05-13T15:17:45.986Z,101260.78
2023-05-13T15:22:48.047Z,101255.56
2023-05-13T15:27:50.858Z,101266.06
2023-05-13T15:32:52.810Z,101259.94
2023-05-13T15:37:54.687Z,101244.66
2023-05-13T15:42:56.668Z,101238.47
2023-05-13T15:47:58.704Z,101233.97
2023-05-13T15:53:00.691Z,101231.38
2023-05-13T15:58:02.668Z,101229.75
2023-05-13T16:03:04.522Z,101225.78
2023-05-13T16:08:06.526Z,101235.88
2023-05-13T16:13:08.443Z,101227.56
2023-05-13T16:18:10.463Z,101225.66
2023-05-13T16:23:12.357Z,101240.00
2023-05-13T16:28:14.210Z,101259.66
2023-05-13T16:33:18.088Z,101270.34
2023-05-13T16:38:19.979Z,101276.41
2023-05-13T16:43:22.389Z,101271.25
2023-05-13T16:48:24.336Z,101287.53
2023-05-13T16:53:26.516Z,101292.81
2023-05-13T16:58:34.291Z,101284.69
2023-05-13T17:03:36.222Z,101264.50
2023-05-13T17:08:38.083Z,101255.56
2023-05-13T17:13:39.889Z,101245.72
2023-05-13T17:18:41.754Z,101265.22
2023-05-13T17:23:43.571Z,101276.84
2023-05-13T17:28:45.371Z,101278.66
2023-05-13T17:33:47.219Z,101283.94
2023-05-13T17:38:50.033Z,101284.69
2023-05-13T17:43:51.827Z,101290.31
2023-05-13T17:48:53.805Z,101277.72
2023-05-13T17:53:55.838Z,101283.44
2023-05-13T17:58:57.812Z,101288.59
2023-05-13T18:03:59.752Z,101281.81
2023-05-13T18:09:02.767Z,101279.72
2023-05-13T18:14:04.777Z,101272.44
2023-05-13T18:19:07.171Z,101262.03
2023-05-13T18:24:09.266Z,101261.41
2023-05-13T18:29:11.222Z,101257.63
2023-05-13T18:34:13.160Z,101265.84
2023-05-13T18:39:15.901Z,101240.22
2023-05-13T18:44:17.897Z,101240.94
2023-05-13T18:49:19.645Z,101237.84
2023-05-13T18:54:21.695Z,101241.28
2023-05-13T18:59:23.588Z,101233.50
2023-05-13T19:04:25.641Z,101240.50
2023-05-13T19:09:27.508Z,101242.91
2023-05-13T19:14:29.384Z,101249.88
2023-05-13T19:19:31.272Z,101249.94
2023-05-13T19:24:33.144Z,101258.88
2023-05-13T19:29:35.606Z,101266.69
2023-05-13T19:34:37.402Z,101264.44
2023-05-13T19:39:39.261Z,101274.13
2023-05-13T19:44:41.127Z,101278.34
2023-05-13T19:49:43.173Z,101274.91
2023-05-13T19:54:44.985Z,101277.66
2023-05-13T19:59:47.063Z,101285.50
2023-05-13T20:04:49.091Z,101292.72
2023-05-13T20:09:51.184Z,101298.84
2023-05-13T20:14:56.283Z,101301.72
2023-05-13T20:19:58.266Z,101291.88
2023-05-13T20:25:00.264Z,101295.41
2023-05-13T20:30:02.379Z,101294.56
2023-05-13T20:35:04.509Z,101303.19
2023-05-13T20:40:07.666Z,101296.19
2023-05-13T20:45:10.088Z,101298.19
2023-05-13T20:50:12.444Z,101291.59
2023-05-13T20:55:15.765Z,101287.38
2023-05-13T21:00:18.001Z,101289.22
2023-05-13T21:05:20.075Z,101291.72
2023-05-13T21:10:22.602Z,101291.81
2023-05-13T21:15:24.616Z,101289.91
2023-05-13T21:20:26.624Z,101290.84
2023-05-13T21:25:28.484Z,101299.81
2023-05-13T21:30:32.430Z,101298.19
2023-05-13T21:35:34.356Z,101301.53
2023-05-13T21:40:38.694Z,101307.66
2023-05-13T21:45:40.720Z,101305.94
2023-05-13T21:50:42.672Z,101310.44
2023-05-13T21:55:44.726Z,101310.94
2023-05-13T22:00:46.874Z,101302.16
2023-05-13T22:05:48.669Z,101319.91
2023-05-13T22:10:50.506Z,101324.31
2023-05-13T22:15:52.432Z,101319.03
2023-05-13T22:20:54.320Z,101310.09
2023-05-13T22:25:56.275Z,101306.38
2023-05-13T22:31:01.394Z,101293.00
2023-05-13T22:36:03.802Z,101293.16
2023-05-13T22:41:06.256Z,101287.66
2023-05-13T22:46:08.234Z,101287.81
2023-05-13T22:51:10.254Z,101285.91
2023-05-13T22:56:12.127Z,101280.66
2023-05-13T23:01:15.965Z,101273.38
2023-05-13T23:06:17.750Z,101268.03
2023-05-13T23:11:19.707Z,101269.78
2023-05-13T23:16:21.549Z,101260.91
2023-05-13T23:21:23.391Z,101260.00
2023-05-13T23:26:26.057Z,101270.72
2023-05-13T23:31:27.956Z,101268.81
2023-05-13T23:36:29.810Z,101267.31
2023-05-13T23:41:31.848Z,101260.13
2023-05-13T23:46:33.634Z,101253.03
2023-05-13T23:51:35.722Z,101252.97
2023-05-13T23:56:37.760Z,101250.38
